Airfield :
LOGIN :

Register | Disclaimer

   EN    FR    IT 

 










Legend :    VFR   Marginal VFR   IFR   Intensive IFR   Very Intensive IFR
Visi :
Ceiling :
>= 8 km
>= 3000ft
5 to 8 km
1000 to 3000 ft
1500m to 5 km
500 to 1000 ft
800 to 1500m
200 to 500 ft
< 800m
< 200 ft
Symbols :   Thunderstorms  Fog  Heavy snow  Heavy precipitations  Wind > 20 kt
SIGMETs :     Misc.  Thunderstorms  Icing  Turbulence  Mountain Waves  Volcanic Ashes







- Airport Elevation : 1 ft
- Download approach charts


EGCK - Caernarfon

CURRENT METAR :
  • 221950Z AUTO 17006KT 9999 NCD 14/13 Q1002

EXPIRED METARs :
  • 221920Z AUTO 18006KT 9999 NCD 15/13 Q1002
  • 221850Z AUTO 20008KT 9999 SCT013/// 16/14 Q1001
  • 221820Z AUTO 23009KT 9999 OVC016/// 17/14 Q1001
  • 221750Z AUTO 21009KT 9999 BKN018/// 17/15 Q1001
  • 221720Z AUTO 20008KT 9999 BKN021/// 18/14 Q1001

TAF AMD TAF EGCK
Valid from the 22 at 18:00 until the 23 at 03:00 UTC


221842Z 2218/2303 20009KT 9999 SCT030
PROB40
TEMPO 2218/2303 6000 SHRA BKN008
BECMG 2221/2224 26015KT
No reported NOTAMs for that airfield.



MET'MAP, your aeronautical weather chart ! - Copyright ORBIFLY December 2007 - Disclaimer

ORBIFLY MET'MAP TEAM :

Programming & Development : Alexandra Zaïnal
Concept & Development : Baudouin d'Aumeries
Co-Development & Prog : Marc-Olivier Méhu
Technical & hardware support : Manuel Goepfert

Contact : metmap@orbifly.com




SOURCES & CREDITS :

   NOAA